sensor_id;sensor_type;location;lat;lon;timestamp;P1;durP1;ratioP1;P2;durP2;ratioP2
1178;SDS011;578;48.408;10.004;2022-07-01T00:01:59;3.83;;;3.40;;
1178;SDS011;578;48.408;10.004;2022-07-01T00:04:25;4.43;;;3.40;;
1178;SDS011;578;48.408;10.004;2022-07-01T00:06:52;4.40;;;4.00;;
1178;SDS011;578;48.408;10.004;2022-07-01T00:09:19;6.00;;;3.47;;
1178;SDS011;578;48.408;10.004;2022-07-01T00:11:46;3.77;;;3.10;;
1178;SDS011;578;48.408;10.004;2022-07-01T00:14:13;4.40;;;3.23;;
1178;SDS011;578;48.408;10.004;2022-07-01T00:16:39;2.83;;;2.63;;
1178;SDS011;578;48.408;10.004;2022-07-01T00:19:07;3.27;;;3.03;;
1178;SDS011;578;48.408;10.004;2022-07-01T00:21:34;4.37;;;2.67;;
1178;SDS011;578;48.408;10.004;2022-07-01T00:24:01;3.57;;;3.27;;
1178;SDS011;578;48.408;10.004;2022-07-01T00:26:28;7.17;;;3.30;;
1178;SDS011;578;48.408;10.004;2022-07-01T00:28:55;3.23;;;2.97;;
1178;SDS011;578;48.408;10.004;2022-07-01T00:31:21;3.00;;;2.47;;
1178;SDS011;578;48.408;10.004;2022-07-01T00:33:48;3.03;;;2.30;;
1178;SDS011;578;48.408;10.004;2022-07-01T00:36:16;4.57;;;2.50;;
1178;SDS011;578;48.408;10.004;2022-07-01T00:38:43;3.00;;;2.70;;
1178;SDS011;578;48.408;10.004;2022-07-01T00:41:09;2.90;;;2.60;;
1178;SDS011;578;48.408;10.004;2022-07-01T00:43:36;3.10;;;2.70;;
1178;SDS011;578;48.408;10.004;2022-07-01T00:46:04;3.23;;;2.60;;
1178;SDS011;578;48.408;10.004;2022-07-01T00:48:30;3.07;;;2.67;;
1178;SDS011;578;48.408;10.004;2022-07-01T00:50:58;3.20;;;2.70;;
1178;SDS011;578;48.408;10.004;2022-07-01T00:53:26;3.10;;;2.90;;
1178;SDS011;578;48.408;10.004;2022-07-01T00:55:54;3.30;;;2.97;;
1178;SDS011;578;48.408;10.004;2022-07-01T00:58:21;3.20;;;2.93;;
1178;SDS011;578;48.408;10.004;2022-07-01T01:00:48;2.90;;;2.70;;
1178;SDS011;578;48.408;10.004;2022-07-01T01:03:14;3.67;;;3.30;;
1178;SDS011;578;48.408;10.004;2022-07-01T01:05:41;5.23;;;3.60;;
1178;SDS011;578;48.408;10.004;2022-07-01T01:08:08;4.63;;;3.40;;
1178;SDS011;578;48.408;10.004;2022-07-01T01:10:37;5.30;;;4.17;;
1178;SDS011;578;48.408;10.004;2022-07-01T01:13:04;10.83;;;4.00;;
1178;SDS011;578;48.408;10.004;2022-07-01T01:15:31;4.37;;;3.90;;
1178;SDS011;578;48.408;10.004;2022-07-01T01:17:57;4.70;;;4.20;;
1178;SDS011;578;48.408;10.004;2022-07-01T01:20:26;4.97;;;4.47;;
1178;SDS011;578;48.408;10.004;2022-07-01T01:22:54;5.13;;;4.70;;
1178;SDS011;578;48.408;10.004;2022-07-01T01:25:20;4.57;;;4.17;;
1178;SDS011;578;48.408;10.004;2022-07-01T01:27:47;5.07;;;4.57;;
1178;SDS011;578;48.408;10.004;2022-07-01T01:30:14;6.37;;;4.87;;
1178;SDS011;578;48.408;10.004;2022-07-01T01:32:41;6.03;;;4.77;;
1178;SDS011;578;48.408;10.004;2022-07-01T01:35:08;5.20;;;4.70;;
1178;SDS011;578;48.408;10.004;2022-07-01T01:37:36;7.00;;;5.60;;
1178;SDS011;578;48.408;10.004;2022-07-01T01:40:04;6.10;;;5.60;;
1178;SDS011;578;48.408;10.004;2022-07-01T01:42:32;6.03;;;5.43;;
1178;SDS011;578;48.408;10.004;2022-07-01T01:44:59;5.53;;;5.03;;
1178;SDS011;578;48.408;10.004;2022-07-01T01:47:26;6.63;;;6.00;;
1178;SDS011;578;48.408;10.004;2022-07-01T01:49:52;5.70;;;5.00;;
1178;SDS011;578;48.408;10.004;2022-07-01T01:52:19;6.80;;;5.80;;
1178;SDS011;578;48.408;10.004;2022-07-01T01:54:46;6.60;;;5.90;;
1178;SDS011;578;48.408;10.004;2022-07-01T01:57:14;6.67;;;6.07;;
1178;SDS011;578;48.408;10.004;2022-07-01T01:59:40;6.03;;;5.53;;
1178;SDS011;578;48.408;10.004;2022-07-01T02:02:07;6.37;;;5.70;;
1178;SDS011;578;48.408;10.004;2022-07-01T02:04:34;5.87;;;5.30;;
1178;SDS011;578;48.408;10.004;2022-07-01T02:07:01;4.63;;;4.23;;
1178;SDS011;578;48.408;10.004;2022-07-01T02:09:28;5.73;;;5.13;;
1178;SDS011;578;48.408;10.004;2022-07-01T02:11:54;5.73;;;5.20;;
1178;SDS011;578;48.408;10.004;2022-07-01T02:14:23;5.40;;;4.93;;
1178;SDS011;578;48.408;10.004;2022-07-01T02:16:49;5.60;;;5.10;;
1178;SDS011;578;48.408;10.004;2022-07-01T02:19:16;5.73;;;5.23;;
1178;SDS011;578;48.408;10.004;2022-07-01T02:21:43;5.00;;;4.60;;
1178;SDS011;578;48.408;10.004;2022-07-01T02:24:09;4.60;;;4.20;;
1178;SDS011;578;48.408;10.004;2022-07-01T02:26:36;3.30;;;3.00;;
1178;SDS011;578;48.408;10.004;2022-07-01T02:29:03;5.50;;;3.23;;
1178;SDS011;578;48.408;10.004;2022-07-01T02:31:31;4.73;;;3.07;;
1178;SDS011;578;48.408;10.004;2022-07-01T02:33:57;3.50;;;2.07;;
1178;SDS011;578;48.408;10.004;2022-07-01T02:36:24;2.40;;;2.20;;
1178;SDS011;578;48.408;10.004;2022-07-01T02:38:51;5.30;;;2.30;;
1178;SDS011;578;48.408;10.004;2022-07-01T02:41:18;4.30;;;2.97;;
1178;SDS011;578;48.408;10.004;2022-07-01T02:43:44;3.13;;;2.50;;
1178;SDS011;578;48.408;10.004;2022-07-01T02:46:11;3.03;;;2.73;;
1178;SDS011;578;48.408;10.004;2022-07-01T02:48:39;3.87;;;2.70;;
1178;SDS011;578;48.408;10.004;2022-07-01T02:51:06;21.87;;;3.53;;
1178;SDS011;578;48.408;10.004;2022-07-01T02:53:33;7.93;;;4.07;;
1178;SDS011;578;48.408;10.004;2022-07-01T02:55:59;4.60;;;3.53;;
1178;SDS011;578;48.408;10.004;2022-07-01T02:58:26;5.13;;;3.70;;
1178;SDS011;578;48.408;10.004;2022-07-01T03:00:56;5.40;;;3.90;;
1178;SDS011;578;48.408;10.004;2022-07-01T03:03:23;4.10;;;3.20;;
1178;SDS011;578;48.408;10.004;2022-07-01T03:05:51;3.60;;;3.30;;
1178;SDS011;578;48.408;10.004;2022-07-01T03:08:18;4.97;;;2.70;;
1178;SDS011;578;48.408;10.004;2022-07-01T03:10:45;3.20;;;2.63;;
1178;SDS011;578;48.408;10.004;2022-07-01T03:13:11;3.53;;;2.20;;
1178;SDS011;578;48.408;10.004;2022-07-01T03:15:38;2.70;;;2.50;;
1178;SDS011;578;48.408;10.004;2022-07-01T03:18:05;3.50;;;3.10;;
1178;SDS011;578;48.408;10.004;2022-07-01T03:20:32;2.07;;;1.70;;
1178;SDS011;578;48.408;10.004;2022-07-01T03:23:00;2.40;;;1.80;;
1178;SDS011;578;48.408;10.004;2022-07-01T03:25:27;3.00;;;1.37;;
1178;SDS011;578;48.408;10.004;2022-07-01T03:27:54;3.40;;;1.70;;
1178;SDS011;578;48.408;10.004;2022-07-01T03:30:20;3.17;;;1.73;;
1178;SDS011;578;48.408;10.004;2022-07-01T03:32:47;1.77;;;1.53;;
1178;SDS011;578;48.408;10.004;2022-07-01T03:35:14;3.20;;;2.00;;
1178;SDS011;578;48.408;10.004;2022-07-01T03:37:58;2.83;;;2.07;;
1178;SDS011;578;48.408;10.004;2022-07-01T03:40:28;3.60;;;2.60;;
1178;SDS011;578;48.408;10.004;2022-07-01T03:42:55;3.23;;;3.00;;
1178;SDS011;578;48.408;10.004;2022-07-01T03:45:22;3.73;;;2.80;;
1178;SDS011;578;48.408;10.004;2022-07-01T03:47:49;3.60;;;3.30;;
1178;SDS011;578;48.408;10.004;2022-07-01T03:50:16;3.40;;;3.10;;
1178;SDS011;578;48.408;10.004;2022-07-01T03:52:43;4.30;;;3.50;;
1178;SDS011;578;48.408;10.004;2022-07-01T03:55:11;3.93;;;3.63;;
1178;SDS011;578;48.408;10.004;2022-07-01T03:57:37;4.40;;;3.70;;
1178;SDS011;578;48.408;10.004;2022-07-01T04:00:05;4.13;;;3.83;;
1178;SDS011;578;48.408;10.004;2022-07-01T04:02:33;3.37;;;3.07;;
1178;SDS011;578;48.408;10.004;2022-07-01T04:05:00;3.37;;;3.17;;
1178;SDS011;578;48.408;10.004;2022-07-01T04:07:26;4.13;;;3.73;;
1178;SDS011;578;48.408;10.004;2022-07-01T04:09:53;3.83;;;3.47;;
1178;SDS011;578;48.408;10.004;2022-07-01T04:12:21;4.00;;;3.70;;
1178;SDS011;578;48.408;10.004;2022-07-01T04:14:48;5.90;;;4.00;;
1178;SDS011;578;48.408;10.004;2022-07-01T04:17:15;4.10;;;3.80;;
1178;SDS011;578;48.408;10.004;2022-07-01T04:19:42;4.47;;;4.10;;
1178;SDS011;578;48.408;10.004;2022-07-01T04:22:09;5.87;;;4.40;;
1178;SDS011;578;48.408;10.004;2022-07-01T04:24:54;6.40;;;5.90;;
1178;SDS011;578;48.408;10.004;2022-07-01T04:27:22;6.97;;;6.30;;
1178;SDS011;578;48.408;10.004;2022-07-01T04:29:49;6.27;;;5.53;;
1178;SDS011;578;48.408;10.004;2022-07-01T04:32:16;6.10;;;5.50;;
1178;SDS011;578;48.408;10.004;2022-07-01T04:34:42;5.30;;;4.80;;
1178;SDS011;578;48.408;10.004;2022-07-01T04:37:09;4.40;;;4.00;;
1178;SDS011;578;48.408;10.004;2022-07-01T04:39:37;6.17;;;4.30;;
1178;SDS011;578;48.408;10.004;2022-07-01T04:42:04;4.97;;;4.13;;
1178;SDS011;578;48.408;10.004;2022-07-01T04:44:31;4.47;;;4.07;;
1178;SDS011;578;48.408;10.004;2022-07-01T04:46:59;6.33;;;4.70;;
1178;SDS011;578;48.408;10.004;2022-07-01T04:49:27;5.80;;;5.30;;
1178;SDS011;578;48.408;10.004;2022-07-01T04:51:54;7.30;;;6.70;;
1178;SDS011;578;48.408;10.004;2022-07-01T04:54:22;6.90;;;6.30;;
1178;SDS011;578;48.408;10.004;2022-07-01T04:56:50;7.00;;;6.50;;
1178;SDS011;578;48.408;10.004;2022-07-01T04:59:17;6.30;;;5.70;;
1178;SDS011;578;48.408;10.004;2022-07-01T05:01:46;6.17;;;5.53;;
1178;SDS011;578;48.408;10.004;2022-07-01T05:04:15;5.53;;;4.70;;
1178;SDS011;578;48.408;10.004;2022-07-01T05:06:42;11.43;;;6.03;;
1178;SDS011;578;48.408;10.004;2022-07-01T05:09:09;5.60;;;5.10;;
1178;SDS011;578;48.408;10.004;2022-07-01T05:11:36;5.33;;;4.70;;
1178;SDS011;578;48.408;10.004;2022-07-01T05:14:04;4.03;;;3.63;;
1178;SDS011;578;48.408;10.004;2022-07-01T05:16:31;3.97;;;3.60;;
1178;SDS011;578;48.408;10.004;2022-07-01T05:18:59;4.53;;;4.20;;
1178;SDS011;578;48.408;10.004;2022-07-01T05:21:43;7.00;;;4.70;;
1178;SDS011;578;48.408;10.004;2022-07-01T05:24:23;6.00;;;5.07;;
1178;SDS011;578;48.408;10.004;2022-07-01T05:26:50;6.10;;;5.60;;
1178;SDS011;578;48.408;10.004;2022-07-01T05:29:17;6.03;;;4.57;;
1178;SDS011;578;48.408;10.004;2022-07-01T05:31:44;4.77;;;4.37;;
1178;SDS011;578;48.408;10.004;2022-07-01T05:34:12;5.00;;;4.60;;
1178;SDS011;578;48.408;10.004;2022-07-01T05:36:39;3.67;;;3.37;;
1178;SDS011;578;48.408;10.004;2022-07-01T05:39:06;2.77;;;2.57;;
1178;SDS011;578;48.408;10.004;2022-07-01T05:41:33;5.10;;;3.33;;
1178;SDS011;578;48.408;10.004;2022-07-01T05:44:01;3.47;;;3.17;;
1178;SDS011;578;48.408;10.004;2022-07-01T05:46:28;3.10;;;2.80;;
1178;SDS011;578;48.408;10.004;2022-07-01T05:48:55;3.93;;;3.30;;
1178;SDS011;578;48.408;10.004;2022-07-01T05:51:23;3.50;;;3.07;;
1178;SDS011;578;48.408;10.004;2022-07-01T05:53:50;2.97;;;2.70;;
1178;SDS011;578;48.408;10.004;2022-07-01T05:56:17;3.20;;;2.90;;
1178;SDS011;578;48.408;10.004;2022-07-01T05:58:44;2.63;;;2.40;;
1178;SDS011;578;48.408;10.004;2022-07-01T06:01:10;2.40;;;2.20;;
1178;SDS011;578;48.408;10.004;2022-07-01T06:03:37;4.10;;;2.27;;
1178;SDS011;578;48.408;10.004;2022-07-01T06:06:04;2.73;;;2.20;;
1178;SDS011;578;48.408;10.004;2022-07-01T06:08:33;3.60;;;1.50;;
1178;SDS011;578;48.408;10.004;2022-07-01T06:11:00;6.10;;;2.10;;
1178;SDS011;578;48.408;10.004;2022-07-01T06:13:28;2.00;;;1.60;;
1178;SDS011;578;48.408;10.004;2022-07-01T06:15:55;3.50;;;1.50;;
1178;SDS011;578;48.408;10.004;2022-07-01T06:18:23;2.60;;;1.50;;
1178;SDS011;578;48.408;10.004;2022-07-01T06:20:50;1.70;;;1.50;;
1178;SDS011;578;48.408;10.004;2022-07-01T06:23:17;2.73;;;1.53;;
1178;SDS011;578;48.408;10.004;2022-07-01T06:25:45;1.90;;;1.80;;
1178;SDS011;578;48.408;10.004;2022-07-01T06:28:12;2.30;;;1.80;;
1178;SDS011;578;48.408;10.004;2022-07-01T06:30:39;1.73;;;1.63;;
1178;SDS011;578;48.408;10.004;2022-07-01T06:33:08;2.77;;;1.90;;
1178;SDS011;578;48.408;10.004;2022-07-01T06:35:36;1.90;;;1.50;;
1178;SDS011;578;48.408;10.004;2022-07-01T06:38:03;2.43;;;2.13;;
1178;SDS011;578;48.408;10.004;2022-07-01T06:40:30;2.93;;;1.87;;
1178;SDS011;578;48.408;10.004;2022-07-01T06:42:58;3.17;;;2.07;;
1178;SDS011;578;48.408;10.004;2022-07-01T06:45:25;3.33;;;1.90;;
1178;SDS011;578;48.408;10.004;2022-07-01T06:47:51;2.80;;;2.30;;
1178;SDS011;578;48.408;10.004;2022-07-01T06:50:18;2.23;;;2.03;;
1178;SDS011;578;48.408;10.004;2022-07-01T06:52:47;2.27;;;1.73;;
1178;SDS011;578;48.408;10.004;2022-07-01T06:55:13;1.90;;;1.60;;
1178;SDS011;578;48.408;10.004;2022-07-01T06:57:40;2.13;;;1.40;;
1178;SDS011;578;48.408;10.004;2022-07-01T07:00:09;2.60;;;1.40;;
1178;SDS011;578;48.408;10.004;2022-07-01T07:02:37;1.60;;;1.33;;
1178;SDS011;578;48.408;10.004;2022-07-01T07:05:04;3.30;;;2.03;;
1178;SDS011;578;48.408;10.004;2022-07-01T07:07:32;1.50;;;1.10;;
1178;SDS011;578;48.408;10.004;2022-07-01T07:09:58;1.40;;;0.90;;
1178;SDS011;578;48.408;10.004;2022-07-01T07:12:25;1.63;;;0.90;;
1178;SDS011;578;48.408;10.004;2022-07-01T07:14:52;1.33;;;1.00;;
1178;SDS011;578;48.408;10.004;2022-07-01T07:17:21;1.63;;;0.80;;
1178;SDS011;578;48.408;10.004;2022-07-01T07:19:47;1.70;;;1.23;;
1178;SDS011;578;48.408;10.004;2022-07-01T07:22:14;2.43;;;1.00;;
1178;SDS011;578;48.408;10.004;2022-07-01T07:24:41;1.57;;;1.13;;
1178;SDS011;578;48.408;10.004;2022-07-01T07:27:08;1.20;;;0.80;;
1178;SDS011;578;48.408;10.004;2022-07-01T07:29:35;1.63;;;0.70;;
1178;SDS011;578;48.408;10.004;2022-07-01T07:32:02;1.10;;;0.60;;
1178;SDS011;578;48.408;10.004;2022-07-01T07:34:30;1.40;;;0.90;;
1178;SDS011;578;48.408;10.004;2022-07-01T07:36:57;2.90;;;0.73;;
1178;SDS011;578;48.408;10.004;2022-07-01T07:39:24;4.07;;;0.70;;
1178;SDS011;578;48.408;10.004;2022-07-01T07:41:51;1.00;;;0.50;;
1178;SDS011;578;48.408;10.004;2022-07-01T07:44:18;1.97;;;0.80;;
1178;SDS011;578;48.408;10.004;2022-07-01T07:46:44;1.57;;;0.70;;
1178;SDS011;578;48.408;10.004;2022-07-01T07:49:11;1.23;;;0.70;;
1178;SDS011;578;48.408;10.004;2022-07-01T07:51:40;1.30;;;0.80;;
1178;SDS011;578;48.408;10.004;2022-07-01T07:54:07;1.47;;;0.60;;
1178;SDS011;578;48.408;10.004;2022-07-01T07:56:34;1.30;;;0.87;;
1178;SDS011;578;48.408;10.004;2022-07-01T07:59:00;1.77;;;0.50;;
1178;SDS011;578;48.408;10.004;2022-07-01T08:01:27;1.43;;;0.60;;
1178;SDS011;578;48.408;10.004;2022-07-01T08:03:54;1.10;;;0.70;;
1178;SDS011;578;48.408;10.004;2022-07-01T08:06:21;1.40;;;0.80;;
1178;SDS011;578;48.408;10.004;2022-07-01T08:08:49;0.97;;;0.60;;
1178;SDS011;578;48.408;10.004;2022-07-01T08:11:16;1.03;;;0.70;;
1178;SDS011;578;48.408;10.004;2022-07-01T08:13:43;1.10;;;0.60;;
1178;SDS011;578;48.408;10.004;2022-07-01T08:16:10;2.37;;;1.00;;
1178;SDS011;578;48.408;10.004;2022-07-01T08:18:36;3.53;;;1.10;;
1178;SDS011;578;48.408;10.004;2022-07-01T08:21:03;2.23;;;1.00;;
1178;SDS011;578;48.408;10.004;2022-07-01T08:23:30;2.50;;;1.10;;
1178;SDS011;578;48.408;10.004;2022-07-01T08:25:58;2.33;;;1.00;;
1178;SDS011;578;48.408;10.004;2022-07-01T08:28:25;2.43;;;1.30;;
1178;SDS011;578;48.408;10.004;2022-07-01T08:30:52;4.00;;;1.17;;
1178;SDS011;578;48.408;10.004;2022-07-01T08:33:20;2.33;;;1.10;;
1178;SDS011;578;48.408;10.004;2022-07-01T08:35:46;3.80;;;1.20;;
1178;SDS011;578;48.408;10.004;2022-07-01T08:38:14;2.83;;;1.10;;
1178;SDS011;578;48.408;10.004;2022-07-01T08:40:40;1.50;;;0.97;;
1178;SDS011;578;48.408;10.004;2022-07-01T08:43:09;2.13;;;1.20;;
1178;SDS011;578;48.408;10.004;2022-07-01T08:45:36;2.17;;;1.37;;
1178;SDS011;578;48.408;10.004;2022-07-01T08:48:04;1.90;;;1.30;;
1178;SDS011;578;48.408;10.004;2022-07-01T08:50:33;1.20;;;0.90;;
1178;SDS011;578;48.408;10.004;2022-07-01T08:53:02;1.83;;;0.90;;
1178;SDS011;578;48.408;10.004;2022-07-01T08:55:29;1.50;;;1.00;;
1178;SDS011;578;48.408;10.004;2022-07-01T08:57:56;2.37;;;0.90;;
1178;SDS011;578;48.408;10.004;2022-07-01T09:00:30;1.30;;;0.70;;
1178;SDS011;578;48.408;10.004;2022-07-01T09:02:59;2.80;;;0.70;;
1178;SDS011;578;48.408;10.004;2022-07-01T09:05:28;1.20;;;0.73;;
1178;SDS011;578;48.408;10.004;2022-07-01T09:07:57;2.60;;;0.93;;
1178;SDS011;578;48.408;10.004;2022-07-01T09:10:25;7.23;;;1.10;;
1178;SDS011;578;48.408;10.004;2022-07-01T09:12:53;1.70;;;0.90;;
1178;SDS011;578;48.408;10.004;2022-07-01T09:15:21;1.00;;;0.70;;
1178;SDS011;578;48.408;10.004;2022-07-01T09:17:52;1.63;;;1.00;;
1178;SDS011;578;48.408;10.004;2022-07-01T09:20:24;1.87;;;0.80;;
1178;SDS011;578;48.408;10.004;2022-07-01T09:22:56;2.57;;;1.20;;
1178;SDS011;578;48.408;10.004;2022-07-01T09:25:28;2.47;;;0.90;;
1178;SDS011;578;48.408;10.004;2022-07-01T09:28:06;1.70;;;0.97;;
1178;SDS011;578;48.408;10.004;2022-07-01T09:30:34;2.37;;;0.67;;
1178;SDS011;578;48.408;10.004;2022-07-01T09:33:08;2.70;;;1.00;;
1178;SDS011;578;48.408;10.004;2022-07-01T09:35:36;1.20;;;0.90;;
1178;SDS011;578;48.408;10.004;2022-07-01T09:38:03;1.33;;;0.90;;
1178;SDS011;578;48.408;10.004;2022-07-01T09:40:45;1.30;;;1.03;;
1178;SDS011;578;48.408;10.004;2022-07-01T09:43:14;2.33;;;1.27;;
1178;SDS011;578;48.408;10.004;2022-07-01T09:45:48;2.07;;;1.20;;
1178;SDS011;578;48.408;10.004;2022-07-01T09:48:17;1.90;;;0.97;;
1178;SDS011;578;48.408;10.004;2022-07-01T09:50:44;1.50;;;0.97;;
1178;SDS011;578;48.408;10.004;2022-07-01T09:53:11;1.67;;;1.10;;
1178;SDS011;578;48.408;10.004;2022-07-01T09:55:39;2.00;;;1.40;;
1178;SDS011;578;48.408;10.004;2022-07-01T09:58:06;3.83;;;1.13;;
1178;SDS011;578;48.408;10.004;2022-07-01T10:00:35;2.90;;;1.20;;
1178;SDS011;578;48.408;10.004;2022-07-01T10:03:03;1.90;;;0.80;;
1178;SDS011;578;48.408;10.004;2022-07-01T10:05:36;1.93;;;1.10;;
1178;SDS011;578;48.408;10.004;2022-07-01T10:08:10;1.60;;;1.07;;
1178;SDS011;578;48.408;10.004;2022-07-01T10:11:16;1.60;;;1.23;;
1178;SDS011;578;48.408;10.004;2022-07-01T10:14:03;1.63;;;1.03;;
1178;SDS011;578;48.408;10.004;2022-07-01T10:16:31;2.23;;;0.97;;
1178;SDS011;578;48.408;10.004;2022-07-01T10:18:59;1.57;;;1.00;;
1178;SDS011;578;48.408;10.004;2022-07-01T10:21:33;2.30;;;0.97;;
1178;SDS011;578;48.408;10.004;2022-07-01T10:24:12;1.40;;;1.10;;
1178;SDS011;578;48.408;10.004;2022-07-01T10:26:40;2.30;;;1.07;;
1178;SDS011;578;48.408;10.004;2022-07-01T10:31:59;1.53;;;1.23;;
1178;SDS011;578;48.408;10.004;2022-07-01T10:34:33;1.37;;;0.90;;
1178;SDS011;578;48.408;10.004;2022-07-01T10:37:03;1.87;;;0.80;;
1178;SDS011;578;48.408;10.004;2022-07-01T10:42:21;1.47;;;1.17;;
1178;SDS011;578;48.408;10.004;2022-07-01T10:45:01;2.07;;;1.00;;
1178;SDS011;578;48.408;10.004;2022-07-01T10:47:30;1.13;;;0.90;;
1178;SDS011;578;48.408;10.004;2022-07-01T10:49:57;1.23;;;0.90;;
1178;SDS011;578;48.408;10.004;2022-07-01T10:52:27;3.03;;;1.10;;
1178;SDS011;578;48.408;10.004;2022-07-01T10:54:54;1.63;;;1.03;;
1178;SDS011;578;48.408;10.004;2022-07-01T10:57:32;2.67;;;1.00;;
1178;SDS011;578;48.408;10.004;2022-07-01T11:00:25;1.20;;;0.80;;
1178;SDS011;578;48.408;10.004;2022-07-01T11:03:04;2.23;;;1.00;;
1178;SDS011;578;48.408;10.004;2022-07-01T11:05:33;1.47;;;1.10;;
1178;SDS011;578;48.408;10.004;2022-07-01T11:08:03;1.50;;;0.90;;
1178;SDS011;578;48.408;10.004;2022-07-01T11:10:32;1.47;;;0.90;;
1178;SDS011;578;48.408;10.004;2022-07-01T11:12:59;1.43;;;1.03;;
1178;SDS011;578;48.408;10.004;2022-07-01T11:15:26;2.20;;;1.70;;
1178;SDS011;578;48.408;10.004;2022-07-01T11:17:54;1.63;;;1.20;;
1178;SDS011;578;48.408;10.004;2022-07-01T11:20:23;1.93;;;1.03;;
1178;SDS011;578;48.408;10.004;2022-07-01T11:22:50;1.80;;;1.13;;
1178;SDS011;578;48.408;10.004;2022-07-01T11:25:19;3.13;;;1.33;;
1178;SDS011;578;48.408;10.004;2022-07-01T11:27:49;1.53;;;1.30;;
1178;SDS011;578;48.408;10.004;2022-07-01T11:30:17;1.70;;;0.80;;
1178;SDS011;578;48.408;10.004;2022-07-01T11:32:46;5.17;;;1.50;;
1178;SDS011;578;48.408;10.004;2022-07-01T11:35:14;3.53;;;1.50;;
1178;SDS011;578;48.408;10.004;2022-07-01T11:38:07;2.20;;;1.10;;
1178;SDS011;578;48.408;10.004;2022-07-01T11:40:54;2.80;;;1.40;;
1178;SDS011;578;48.408;10.004;2022-07-01T11:43:23;1.80;;;1.30;;
1178;SDS011;578;48.408;10.004;2022-07-01T11:45:51;1.60;;;0.90;;
1178;SDS011;578;48.408;10.004;2022-07-01T11:48:29;2.07;;;1.13;;
1178;SDS011;578;48.408;10.004;2022-07-01T11:51:05;2.80;;;1.90;;
1178;SDS011;578;48.408;10.004;2022-07-01T11:53:34;2.60;;;1.37;;
1178;SDS011;578;48.408;10.004;2022-07-01T11:56:03;1.40;;;1.10;;
1178;SDS011;578;48.408;10.004;2022-07-01T11:58:40;1.50;;;0.93;;
1178;SDS011;578;48.408;10.004;2022-07-01T12:01:19;1.60;;;1.20;;
1178;SDS011;578;48.408;10.004;2022-07-01T12:03:47;1.67;;;1.00;;
1178;SDS011;578;48.408;10.004;2022-07-01T12:06:14;1.97;;;1.30;;
1178;SDS011;578;48.408;10.004;2022-07-01T12:08:42;1.77;;;1.03;;
1178;SDS011;578;48.408;10.004;2022-07-01T12:11:11;1.70;;;1.10;;
1178;SDS011;578;48.408;10.004;2022-07-01T12:13:38;1.40;;;0.93;;
1178;SDS011;578;48.408;10.004;2022-07-01T12:16:06;1.53;;;0.93;;
1178;SDS011;578;48.408;10.004;2022-07-01T12:18:33;2.03;;;1.27;;
1178;SDS011;578;48.408;10.004;2022-07-01T12:21:00;1.50;;;1.00;;
1178;SDS011;578;48.408;10.004;2022-07-01T12:23:27;1.53;;;1.20;;
1178;SDS011;578;48.408;10.004;2022-07-01T12:25:55;1.60;;;1.40;;
1178;SDS011;578;48.408;10.004;2022-07-01T12:28:27;1.53;;;1.20;;
1178;SDS011;578;48.408;10.004;2022-07-01T12:31:02;1.57;;;1.17;;
1178;SDS011;578;48.408;10.004;2022-07-01T12:33:32;1.60;;;1.10;;
1178;SDS011;578;48.408;10.004;2022-07-01T12:36:03;2.43;;;1.20;;
1178;SDS011;578;48.408;10.004;2022-07-01T12:38:31;2.03;;;1.00;;
1178;SDS011;578;48.408;10.004;2022-07-01T12:40:59;1.70;;;1.07;;
1178;SDS011;578;48.408;10.004;2022-07-01T12:43:28;1.87;;;1.10;;
1178;SDS011;578;48.408;10.004;2022-07-01T12:46:01;3.00;;;0.93;;
1178;SDS011;578;48.408;10.004;2022-07-01T12:48:28;1.30;;;0.90;;
1178;SDS011;578;48.408;10.004;2022-07-01T12:50:56;1.97;;;1.37;;
1178;SDS011;578;48.408;10.004;2022-07-01T12:53:24;1.93;;;1.70;;
1178;SDS011;578;48.408;10.004;2022-07-01T12:55:52;2.03;;;1.83;;
1178;SDS011;578;48.408;10.004;2022-07-01T12:58:21;1.30;;;1.00;;
1178;SDS011;578;48.408;10.004;2022-07-01T13:00:51;1.30;;;1.00;;
1178;SDS011;578;48.408;10.004;2022-07-01T13:03:20;1.23;;;1.00;;
1178;SDS011;578;48.408;10.004;2022-07-01T13:05:49;1.73;;;1.00;;
1178;SDS011;578;48.408;10.004;2022-07-01T13:08:16;1.40;;;1.00;;
1178;SDS011;578;48.408;10.004;2022-07-01T13:10:44;1.20;;;0.77;;
1178;SDS011;578;48.408;10.004;2022-07-01T13:13:12;1.30;;;0.80;;
1178;SDS011;578;48.408;10.004;2022-07-01T13:15:39;1.57;;;1.10;;
1178;SDS011;578;48.408;10.004;2022-07-01T13:18:08;2.37;;;1.13;;
1178;SDS011;578;48.408;10.004;2022-07-01T13:20:35;1.40;;;1.03;;
1178;SDS011;578;48.408;10.004;2022-07-01T13:23:05;1.27;;;0.90;;
1178;SDS011;578;48.408;10.004;2022-07-01T13:25:32;3.10;;;1.73;;
1178;SDS011;578;48.408;10.004;2022-07-01T13:27:59;1.67;;;1.10;;
1178;SDS011;578;48.408;10.004;2022-07-01T13:30:26;1.83;;;1.30;;
1178;SDS011;578;48.408;10.004;2022-07-01T13:32:53;1.73;;;1.30;;
1178;SDS011;578;48.408;10.004;2022-07-01T13:35:22;1.60;;;1.20;;
1178;SDS011;578;48.408;10.004;2022-07-01T13:37:50;1.60;;;1.00;;
1178;SDS011;578;48.408;10.004;2022-07-01T13:40:17;1.63;;;1.10;;
1178;SDS011;578;48.408;10.004;2022-07-01T13:42:44;1.60;;;1.03;;
1178;SDS011;578;48.408;10.004;2022-07-01T13:45:10;2.83;;;1.00;;
1178;SDS011;578;48.408;10.004;2022-07-01T13:47:38;2.03;;;1.37;;
1178;SDS011;578;48.408;10.004;2022-07-01T13:50:05;2.80;;;1.10;;
1178;SDS011;578;48.408;10.004;2022-07-01T13:52:34;1.60;;;1.40;;
1178;SDS011;578;48.408;10.004;2022-07-01T13:55:01;2.07;;;1.63;;
1178;SDS011;578;48.408;10.004;2022-07-01T13:57:28;1.50;;;1.03;;
1178;SDS011;578;48.408;10.004;2022-07-01T13:59:55;1.57;;;1.10;;
1178;SDS011;578;48.408;10.004;2022-07-01T14:02:23;1.87;;;1.37;;
1178;SDS011;578;48.408;10.004;2022-07-01T14:04:51;1.40;;;1.00;;
1178;SDS011;578;48.408;10.004;2022-07-01T14:07:18;1.77;;;1.37;;
1178;SDS011;578;48.408;10.004;2022-07-01T14:09:46;1.90;;;1.20;;
1178;SDS011;578;48.408;10.004;2022-07-01T14:12:13;1.23;;;0.83;;
1178;SDS011;578;48.408;10.004;2022-07-01T14:14:41;4.43;;;1.70;;
1178;SDS011;578;48.408;10.004;2022-07-01T14:17:09;2.07;;;1.53;;
1178;SDS011;578;48.408;10.004;2022-07-01T14:19:49;2.00;;;1.67;;
1178;SDS011;578;48.408;10.004;2022-07-01T14:22:17;2.20;;;1.60;;
1178;SDS011;578;48.408;10.004;2022-07-01T14:28:02;2.27;;;1.83;;
1178;SDS011;578;48.408;10.004;2022-07-01T14:30:30;2.57;;;2.10;;
1178;SDS011;578;48.408;10.004;2022-07-01T14:32:58;3.30;;;2.10;;
1178;SDS011;578;48.408;10.004;2022-07-01T14:35:25;2.73;;;1.90;;
1178;SDS011;578;48.408;10.004;2022-07-01T14:37:52;3.60;;;1.70;;
1178;SDS011;578;48.408;10.004;2022-07-01T14:40:20;2.20;;;2.00;;
1178;SDS011;578;48.408;10.004;2022-07-01T14:42:48;1.73;;;1.47;;
1178;SDS011;578;48.408;10.004;2022-07-01T14:45:15;2.13;;;1.93;;
1178;SDS011;578;48.408;10.004;2022-07-01T14:47:42;2.40;;;2.00;;
1178;SDS011;578;48.408;10.004;2022-07-01T14:50:09;3.13;;;2.40;;
1178;SDS011;578;48.408;10.004;2022-07-01T14:52:36;2.20;;;1.97;;
1178;SDS011;578;48.408;10.004;2022-07-01T14:55:03;2.93;;;2.43;;
1178;SDS011;578;48.408;10.004;2022-07-01T14:57:32;2.13;;;1.80;;
1178;SDS011;578;48.408;10.004;2022-07-01T14:59:59;2.87;;;2.47;;
1178;SDS011;578;48.408;10.004;2022-07-01T15:02:27;3.07;;;2.77;;
1178;SDS011;578;48.408;10.004;2022-07-01T15:04:54;2.67;;;2.20;;
1178;SDS011;578;48.408;10.004;2022-07-01T15:07:21;2.30;;;2.10;;
1178;SDS011;578;48.408;10.004;2022-07-01T15:09:49;2.37;;;1.80;;
1178;SDS011;578;48.408;10.004;2022-07-01T15:12:16;2.73;;;2.53;;
1178;SDS011;578;48.408;10.004;2022-07-01T15:14:44;2.40;;;2.20;;
1178;SDS011;578;48.408;10.004;2022-07-01T15:17:11;2.60;;;2.10;;
1178;SDS011;578;48.408;10.004;2022-07-01T15:19:39;2.30;;;1.90;;
1178;SDS011;578;48.408;10.004;2022-07-01T15:22:06;3.00;;;2.70;;
1178;SDS011;578;48.408;10.004;2022-07-01T15:24:34;2.63;;;2.07;;
1178;SDS011;578;48.408;10.004;2022-07-01T15:27:01;2.53;;;1.90;;
1178;SDS011;578;48.408;10.004;2022-07-01T15:29:28;2.43;;;2.00;;
1178;SDS011;578;48.408;10.004;2022-07-01T15:31:57;2.20;;;1.60;;